Time;durP1;ratioP1;P1;durP2;ratioP2;P2;SDS_P1;SDS_P2;PMS_P1;PMS_P2;Temp;Humidity;BMP_temperature;BMP_pressure;BME280_temperature;BME280_humidity;BME280_pressure;Samples;Min_cycle;Max_cycle;Signal;HPM_P1;HPM_P2
2023/03/22 00:00:45;;;;;;;22.73;11.93;;;19.10;48.70;;;;;;4973288;28;20202;-55
2023/03/22 00:03:12;;;;;;;18.90;10.93;;;19.00;48.70;;;;;;4974336;28;20194;-55
2023/03/22 00:05:39;;;;;;;22.38;11.43;;;19.00;48.70;;;;;;4973303;28;20236;-54
2023/03/22 00:08:07;;;;;;;23.88;11.43;;;19.00;48.70;;;;;;4972929;28;20574;-55
2023/03/22 00:10:36;;;;;;;23.23;11.32;;;19.00;48.90;;;;;;4974471;28;20190;-55
2023/03/22 00:13:04;;;;;;;21.08;10.88;;;19.00;48.90;;;;;;4973039;28;20658;-55
2023/03/22 00:15:31;;;;;;;24.13;11.40;;;18.90;48.90;;;;;;4974184;28;20636;-55
2023/03/22 00:17:58;;;;;;;22.00;10.75;;;18.90;48.80;;;;;;4974108;28;20194;-55
2023/03/22 00:20:29;;;;;;;19.98;11.63;;;18.90;48.90;;;;;;4974119;28;20198;-55
2023/03/22 00:22:56;;;;;;;20.30;10.27;;;18.90;49.00;;;;;;4974249;28;20217;-54
2023/03/22 00:25:23;;;;;;;19.45;10.88;;;18.90;49.00;;;;;;4972820;28;20241;-55
2023/03/22 00:27:52;;;;;;;19.95;10.27;;;18.80;49.00;;;;;;4972791;28;20672;-55
2023/03/22 00:30:19;;;;;;;16.83;9.73;;;18.80;49.00;;;;;;4974202;28;20218;-55
2023/03/22 00:32:46;;;;;;;16.95;9.50;;;18.80;49.00;;;;;;4974113;28;20581;-55
2023/03/22 00:35:13;;;;;;;19.85;9.50;;;18.80;49.00;;;;;;4978461;28;20193;-55
2023/03/22 00:37:41;;;;;;;18.95;9.95;;;18.80;49.00;;;;;;4976610;28;20703;-55
2023/03/22 00:40:09;;;;;;;19.33;9.70;;;18.80;49.10;;;;;;4978455;28;20296;-55
2023/03/22 00:42:36;;;;;;;16.40;9.32;;;18.70;49.10;;;;;;4976712;28;20205;-55
2023/03/22 00:45:09;;;;;;;20.23;9.35;;;18.70;49.00;;;;;;4978073;28;20204;-55
2023/03/22 00:47:36;;;;;;;19.20;9.93;;;18.70;49.20;;;;;;4978042;28;20246;-56
2023/03/22 00:50:03;;;;;;;16.52;8.70;;;18.70;49.20;;;;;;4976616;28;20284;-55
2023/03/22 00:52:30;;;;;;;17.15;8.98;;;18.70;49.20;;;;;;4976445;28;20228;-55
2023/03/22 00:54:57;;;;;;;17.80;9.52;;;18.70;49.20;;;;;;4976714;28;20206;-55
2023/03/22 00:57:24;;;;;;;17.95;9.27;;;18.60;49.10;;;;;;4976551;28;20226;-55
2023/03/22 00:59:52;;;;;;;15.27;9.20;;;18.60;49.10;;;;;;4976353;28;20645;-56
2023/03/22 01:02:28;;;;;;;15.88;8.43;;;18.60;49.10;;;;;;4976391;28;20366;-55
2023/03/22 01:04:56;;;;;;;14.88;9.02;;;18.60;49.70;;;;;;4977718;28;20202;-55
2023/03/22 01:07:23;;;;;;;16.00;9.50;;;18.60;49.70;;;;;;4977703;28;20209;-55
2023/03/22 01:09:50;;;;;;;15.05;8.48;;;18.60;49.10;;;;;;4976129;28;20226;-55
2023/03/22 01:12:17;;;;;;;16.02;9.00;;;18.60;49.10;;;;;;4976195;28;20218;-55
2023/03/22 01:14:44;;;;;;;16.50;8.63;;;18.60;49.10;;;;;;4976143;28;20237;-55
2023/03/22 01:17:12;;;;;;;18.08;9.20;;;18.60;49.10;;;;;;4976121;28;20248;-55
2023/03/22 01:19:40;;;;;;;16.38;8.10;;;18.50;49.00;;;;;;4975922;28;20313;-55
2023/03/22 01:22:08;;;;;;;13.90;8.40;;;18.50;49.70;;;;;;4988767;23;20227;-82
2023/03/22 01:24:35;;;;;;;14.45;8.52;;;18.50;49.10;;;;;;4942942;29;20246;-82
2023/03/22 01:27:03;;;;;;;14.80;7.90;;;18.50;49.20;;;;;;4943572;29;20673;-82
2023/03/22 01:29:31;;;;;;;14.80;8.00;;;18.50;49.20;;;;;;4943265;29;20203;-82
2023/03/22 01:31:58;;;;;;;13.77;7.78;;;18.50;49.30;;;;;;4943504;29;20199;-82
2023/03/22 01:34:26;;;;;;;14.02;7.70;;;18.50;49.20;;;;;;4927368;29;20309;-82
2023/03/22 01:36:55;;;;;;;15.18;7.78;;;18.50;49.30;;;;;;4943984;29;20222;-82
2023/03/22 01:39:22;;;;;;;13.32;8.13;;;18.40;49.20;;;;;;4943242;29;20259;-82
2023/03/22 01:41:55;;;;;;;12.00;7.90;;;18.40;49.20;;;;;;4942869;29;20616;-82
2023/03/22 01:44:23;;;;;;;14.75;7.65;;;18.40;49.30;;;;;;4926518;29;20286;-82
2023/03/22 01:46:52;;;;;;;12.25;6.95;;;18.40;49.30;;;;;;4942267;29;20605;-82
2023/03/22 01:49:22;;;;;;;13.65;7.25;;;18.40;49.40;;;;;;4943669;29;20203;-82
2023/03/22 01:51:49;;;;;;;13.98;7.57;;;18.30;49.20;;;;;;4942678;29;20203;-82
2023/03/22 01:54:30;;;;;;;13.65;7.88;;;18.30;49.20;;;;;;4942720;29;20592;-82
2023/03/22 01:56:58;;;;;;;16.15;7.90;;;18.30;49.30;;;;;;4943290;29;20286;-82
2023/03/22 01:59:33;;;;;;;11.52;7.15;;;18.30;49.30;;;;;;4942622;29;20199;-82
2023/03/22 02:02:17;;;;;;;13.07;7.25;;;18.30;49.40;;;;;;4943819;29;20627;-82
2023/03/22 02:04:50;;;;;;;10.43;7.00;;;18.30;49.30;;;;;;4944219;29;20218;-82
2023/03/22 02:07:26;;;;;;;14.45;7.28;;;18.20;49.20;;;;;;4943658;29;20203;-82
2023/03/22 02:09:57;;;;;;;11.90;6.57;;;18.30;49.30;;;;;;4944012;29;20198;-82
2023/03/22 02:12:33;;;;;;;11.38;7.00;;;18.20;49.20;;;;;;4943540;29;20246;-82
2023/03/22 02:15:08;;;;;;;12.77;7.28;;;18.20;49.20;;;;;;4943419;29;20219;-82
2023/03/22 02:18:00;;;;;;;12.20;6.90;;;18.20;49.10;;;;;;4960421;29;20186;-82
2023/03/22 02:21:28;;;;;;;11.75;6.65;;;18.20;49.10;;;;;;4942894;29;20199;-82
2023/03/22 02:24:25;;;;;;;11.10;6.10;;;18.20;49.20;;;;;;4882066;29;20254;-82
2023/03/22 02:27:24;;;;;;;11.32;6.70;;;18.10;49.00;;;;;;4902301;29;20275;-82
2023/03/22 02:29:56;;;;;;;9.50;6.35;;;18.10;49.10;;;;;;4941789;29;20203;-82
2023/03/22 02:32:42;;;;;;;13.05;7.00;;;18.10;49.20;;;;;;4942114;29;20219;-82
2023/03/22 02:35:34;;;;;;;12.18;6.35;;;18.10;49.20;;;;;;4942093;29;20217;-82
2023/03/22 02:38:18;;;;;;;9.57;5.90;;;18.10;49.20;;;;;;4942219;29;20195;-82
2023/03/22 02:40:48;;;;;;;10.20;5.63;;;18.10;49.20;;;;;;4942373;29;20199;-82
2023/03/22 02:43:18;;;;;;;10.52;5.90;;;18.00;49.10;;;;;;4959568;28;20673;-82
2023/03/22 02:45:47;;;;;;;9.68;6.60;;;18.00;49.30;;;;;;4959798;29;20202;-82
2023/03/22 02:48:17;;;;;;;10.55;6.22;;;18.00;49.20;;;;;;4942076;29;20230;-82
2023/03/22 02:50:46;;;;;;;8.15;5.60;;;18.00;49.20;;;;;;4941281;29;20277;-82
2023/03/22 02:53:16;;;;;;;8.85;6.00;;;18.00;49.30;;;;;;4941092;28;20230;-82
2023/03/22 02:55:45;;;;;;;10.32;6.57;;;17.90;49.20;;;;;;4940960;28;20198;-83
2023/03/22 02:58:15;;;;;;;9.93;6.13;;;18.00;49.30;;;;;;4941137;29;20281;-82
2023/03/22 03:00:42;;;;;;;10.82;6.55;;;17.90;49.30;;;;;;4940913;29;20194;-82
2023/03/22 03:03:11;;;;;;;10.68;6.25;;;17.90;49.90;;;;;;4941082;28;20199;-82
2023/03/22 03:05:40;;;;;;;11.52;5.85;;;17.90;49.30;;;;;;4941143;29;20643;-82
2023/03/22 03:08:07;;;;;;;9.38;6.20;;;17.90;49.30;;;;;;4940764;29;20203;-82
2023/03/22 03:10:38;;;;;;;8.98;6.20;;;17.90;49.30;;;;;;4942722;29;20226;-82
2023/03/22 03:13:05;;;;;;;11.40;6.00;;;17.80;49.30;;;;;;4944908;28;20219;-82
2023/03/22 03:15:34;;;;;;;8.55;5.68;;;17.80;49.30;;;;;;4944283;29;20195;-82
2023/03/22 03:18:17;;;;;;;7.90;5.05;;;17.80;49.30;;;;;;4944313;29;20198;-82
2023/03/22 03:20:51;;;;;;;10.52;5.57;;;17.80;49.30;;;;;;4940518;29;20198;-82
2023/03/22 03:23:24;;;;;;;9.52;5.55;;;17.80;49.30;;;;;;4940572;29;20230;-82
2023/03/22 03:25:56;;;;;;;8.18;5.30;;;17.80;49.30;;;;;;4940370;29;20187;-82
2023/03/22 03:28:29;;;;;;;8.57;5.50;;;17.80;49.30;;;;;;4940669;29;20187;-82
2023/03/22 03:30:59;;;;;;;7.57;5.38;;;17.70;49.30;;;;;;4941266;29;20206;-82
2023/03/22 03:33:26;;;;;;;8.77;5.80;;;17.70;49.30;;;;;;4940952;29;20235;-82
2023/03/22 03:35:55;;;;;;;9.18;5.53;;;17.70;49.40;;;;;;4925732;29;20250;-82
2023/03/22 03:38:25;;;;;;;9.95;5.93;;;17.70;49.30;;;;;;4925560;29;20646;-82
2023/03/22 03:40:54;;;;;;;9.25;5.53;;;17.70;49.30;;;;;;4941691;29;20203;-82
2023/03/22 03:43:21;;;;;;;8.52;5.43;;;17.70;49.40;;;;;;4942276;29;20214;-82
2023/03/22 03:45:50;;;;;;;7.55;4.85;;;17.70;49.40;;;;;;4941933;29;20694;-82
2023/03/22 03:48:19;;;;;;;9.43;5.50;;;17.60;49.30;;;;;;4941942;29;20199;-82
2023/03/22 03:50:47;;;;;;;8.98;5.65;;;17.70;49.40;;;;;;4942791;29;20293;-82
2023/03/22 03:53:14;;;;;;;7.18;4.82;;;17.60;49.40;;;;;;4942557;28;20230;-82
2023/03/22 03:55:41;;;;;;;6.80;4.85;;;17.60;49.80;;;;;;4943010;29;20199;-82
2023/03/22 03:58:09;;;;;;;7.18;5.13;;;17.60;49.30;;;;;;4927085;29;20198;-82
2023/03/22 04:00:36;;;;;;;7.68;5.32;;;17.60;49.40;;;;;;4943503;29;20225;-82
2023/03/22 04:03:37;;;;;;;8.02;5.32;;;17.60;49.30;;;;;;4942703;29;20215;-82
2023/03/22 04:06:24;;;;;;;6.38;4.82;;;17.60;49.20;;;;;;4959514;29;20213;-82
2023/03/22 04:09:00;;;;;;;7.22;4.82;;;17.50;49.10;;;;;;4942560;29;20691;-81
2023/03/22 04:11:31;;;;;;;6.10;4.75;;;17.50;49.10;;;;;;4943251;29;20215;-81
2023/03/22 04:14:01;;;;;;;7.18;5.10;;;17.60;49.70;;;;;;4940126;29;20238;-82
2023/03/22 04:16:28;;;;;;;6.78;4.30;;;17.50;49.10;;;;;;4923228;29;20199;-82
2023/03/22 04:18:57;;;;;;;7.03;4.85;;;17.50;49.10;;;;;;4923962;29;20202;-81
2023/03/22 04:21:24;;;;;;;6.90;4.95;;;17.50;49.20;;;;;;4939189;29;20202;-82
2023/03/22 04:23:57;;;;;;;8.25;5.18;;;17.50;49.10;;;;;;4939428;29;20571;-81
2023/03/22 04:26:24;;;;;;;6.35;4.40;;;17.50;49.10;;;;;;4940048;29;20194;-82
2023/03/22 04:29:10;;;;;;;8.02;4.88;;;17.50;49.10;;;;;;4930036;29;20191;-82
2023/03/22 04:31:42;;;;;;;5.95;4.20;;;17.50;49.10;;;;;;4942976;29;20204;-82
2023/03/22 04:34:37;;;;;;;6.68;4.22;;;17.60;49.60;;;;;;4958667;28;20278;-82
2023/03/22 04:37:09;;;;;;;7.75;4.50;;;17.60;49.60;;;;;;4943628;29;20282;-82
2023/03/22 04:39:40;;;;;;;6.15;4.20;;;17.60;49.50;;;;;;4944581;29;20282;-82
2023/03/22 04:42:31;;;;;;;5.57;4.03;;;17.60;49.50;;;;;;4942810;29;20553;-82
2023/03/22 04:45:10;;;;;;;5.63;4.28;;;17.70;49.30;;;;;;4942648;29;20220;-82
2023/03/22 04:47:38;;;;;;;7.20;4.03;;;17.70;49.20;;;;;;4943334;29;20249;-82
2023/03/22 04:50:09;;;;;;;6.55;4.18;;;17.70;48.90;;;;;;4961683;29;20201;-82
2023/03/22 04:52:46;;;;;;;6.32;4.28;;;17.70;49.10;;;;;;4943924;29;20202;-82
2023/03/22 04:55:14;;;;;;;5.93;4.10;;;17.70;48.70;;;;;;4944248;29;20657;-82
2023/03/22 04:57:43;;;;;;;5.85;4.22;;;17.70;48.70;;;;;;4946167;29;20269;-82
2023/03/22 05:00:11;;;;;;;5.55;3.70;;;17.70;48.70;;;;;;4959516;29;20187;-82
2023/03/22 05:02:39;;;;;;;5.63;4.07;;;17.70;48.70;;;;;;4960144;29;20203;-82
2023/03/22 05:05:11;;;;;;;5.15;4.10;;;17.70;48.60;;;;;;4958498;29;20266;-82
2023/03/22 05:07:40;;;;;;;6.07;4.10;;;17.70;48.60;;;;;;4943374;29;20202;-82
2023/03/22 05:10:10;;;;;;;5.53;4.00;;;17.60;48.60;;;;;;4941630;29;20210;-82
2023/03/22 05:12:37;;;;;;;5.20;4.05;;;17.70;48.40;;;;;;4947264;29;20290;-82
2023/03/22 05:15:17;;;;;;;7.00;3.90;;;17.70;48.50;;;;;;4946699;29;20567;-82
2023/03/22 05:17:45;;;;;;;5.80;3.88;;;17.70;48.50;;;;;;4945637;29;20205;-82
2023/03/22 05:20:13;;;;;;;4.90;3.92;;;17.70;48.50;;;;;;4947774;29;20245;-82
2023/03/22 05:22:44;;;;;;;6.05;4.03;;;17.70;48.60;;;;;;4947346;29;20340;-82
2023/03/22 05:25:11;;;;;;;5.78;3.80;;;17.60;48.40;;;;;;4949976;29;20399;-82
2023/03/22 05:27:42;;;;;;;5.68;4.07;;;17.70;48.50;;;;;;4951394;29;20199;-83
2023/03/22 05:30:28;;;;;;;5.57;4.05;;;17.60;48.60;;;;;;4951527;29;20202;-83
2023/03/22 05:33:02;;;;;;;4.22;3.70;;;17.60;48.30;;;;;;4957520;28;20191;-83
2023/03/22 05:35:35;;;;;;;5.60;3.58;;;17.60;48.60;;;;;;4950406;29;20203;-83
2023/03/22 05:38:03;;;;;;;4.68;3.65;;;17.60;48.50;;;;;;4950038;29;20207;-83
2023/03/22 05:40:32;;;;;;;3.97;3.42;;;17.60;48.50;;;;;;4945378;29;20270;-82
2023/03/22 05:43:00;;;;;;;5.15;3.70;;;17.60;48.40;;;;;;4947664;28;20245;-82
2023/03/22 05:45:28;;;;;;;5.80;3.92;;;17.60;48.50;;;;;;4950731;29;20222;-82
2023/03/22 05:48:19;;;;;;;4.95;3.58;;;17.70;48.40;;;;;;4951480;29;20195;-82
2023/03/22 05:50:48;;;;;;;4.68;3.58;;;17.60;48.30;;;;;;4951403;29;20195;-82
2023/03/22 05:53:15;;;;;;;3.58;3.17;;;17.70;48.40;;;;;;4960194;29;20242;-82
2023/03/22 05:55:59;;;;;;;5.47;3.75;;;17.70;48.40;;;;;;4947966;29;20195;-82
2023/03/22 05:58:29;;;;;;;4.85;3.15;;;17.70;48.40;;;;;;4961370;29;20190;-82
2023/03/22 06:00:59;;;;;;;4.60;3.50;;;17.70;48.40;;;;;;4945279;29;20219;-82
2023/03/22 06:03:49;;;;;;;4.13;3.35;;;17.70;48.40;;;;;;4977338;28;20241;-81
2023/03/22 06:06:27;;;;;;;5.78;3.40;;;17.70;48.40;;;;;;4959710;29;20190;-81
2023/03/22 06:09:01;;;;;;;3.90;3.50;;;17.70;48.40;;;;;;4939103;29;20194;-82
2023/03/22 06:11:32;;;;;;;4.38;3.20;;;17.70;48.40;;;;;;4941726;29;20736;-80
2023/03/22 06:13:59;;;;;;;3.33;3.00;;;17.70;48.10;;;;;;4941604;29;20624;-80
2023/03/22 06:16:34;;;;;;;5.13;3.33;;;17.80;48.20;;;;;;4942014;29;20281;-81
2023/03/22 06:19:01;;;;;;;6.03;3.50;;;17.80;48.40;;;;;;4941496;29;20225;-81
2023/03/22 06:21:29;;;;;;;4.47;3.30;;;17.80;48.00;;;;;;4942470;29;20207;-81
2023/03/22 06:23:57;;;;;;;4.22;3.42;;;17.90;48.40;;;;;;4925743;29;20246;-81
2023/03/22 06:26:25;;;;;;;3.38;2.92;;;17.90;48.60;;;;;;4941560;29;20274;-81
2023/03/22 06:28:52;;;;;;;4.30;3.13;;;17.90;48.60;;;;;;4941701;29;20231;-81
2023/03/22 06:31:19;;;;;;;5.63;3.05;;;17.90;48.60;;;;;;4926061;29;20254;-81
2023/03/22 06:33:56;;;;;;;5.68;3.30;;;17.90;48.70;;;;;;4941140;29;20219;-81
2023/03/22 06:36:41;;;;;;;3.50;3.10;;;17.90;48.60;;;;;;4941732;29;20627;-81
2023/03/22 06:39:28;;;;;;;5.30;3.42;;;18.10;48.70;;;;;;4953291;29;20199;-81
2023/03/22 06:41:55;;;;;;;4.80;3.05;;;18.00;48.60;;;;;;4941547;29;20206;-81
2023/03/22 06:44:22;;;;;;;4.47;3.13;;;18.00;48.60;;;;;;4942044;29;20310;-81
2023/03/22 06:46:49;;;;;;;6.68;3.70;;;18.00;48.60;;;;;;4959033;29;20289;-80
2023/03/22 06:49:28;;;;;;;5.05;3.42;;;18.00;48.70;;;;;;4942122;29;20265;-81
2023/03/22 06:51:59;;;;;;;3.65;2.92;;;18.10;48.70;;;;;;4942302;29;20678;-80
2023/03/22 06:54:26;;;;;;;4.45;3.30;;;18.20;48.60;;;;;;4928207;29;20636;-79
2023/03/22 06:56:54;;;;;;;3.78;3.25;;;18.30;48.60;;;;;;4941987;29;20202;-79
2023/03/22 06:59:21;;;;;;;4.35;3.03;;;18.50;48.50;;;;;;4940948;29;20218;-79
2023/03/22 07:01:48;;;;;;;3.88;2.80;;;18.60;48.10;;;;;;4925390;29;20206;-79
2023/03/22 07:04:16;;;;;;;3.40;3.03;;;18.80;47.90;;;;;;4941108;29;20266;-79
2023/03/22 07:06:46;;;;;;;4.68;2.78;;;19.00;47.50;;;;;;4941120;29;20199;-79
2023/03/22 07:09:15;;;;;;;4.63;2.92;;;19.20;47.40;;;;;;4924972;29;20221;-79
2023/03/22 07:11:43;;;;;;;4.65;3.13;;;19.30;47.30;;;;;;4925330;29;20195;-79
2023/03/22 07:14:11;;;;;;;3.60;3.10;;;19.50;46.90;;;;;;4940286;29;20265;-79
2023/03/22 07:16:51;;;;;;;4.88;2.90;;;19.60;46.60;;;;;;4940836;29;20207;-79
2023/03/22 07:19:20;;;;;;;3.05;2.75;;;19.90;46.40;;;;;;4940894;29;20205;-79
2023/03/22 07:21:47;;;;;;;3.88;3.15;;;20.20;45.90;;;;;;4940663;29;20226;-79
2023/03/22 07:24:17;;;;;;;3.88;2.85;;;20.40;45.80;;;;;;4940915;29;20573;-79
2023/03/22 07:26:45;;;;;;;3.97;3.00;;;20.60;45.20;;;;;;4940288;29;20195;-79
2023/03/22 07:29:17;;;;;;;3.70;2.90;;;20.80;44.90;;;;;;4925553;29;20210;-79
2023/03/22 07:31:44;;;;;;;3.80;2.92;;;21.00;44.60;;;;;;4940493;29;20306;-79
2023/03/22 07:34:20;;;;;;;4.13;2.80;;;21.20;44.40;;;;;;4940357;29;20226;-79
2023/03/22 07:37:16;;;;;;;3.75;2.97;;;21.30;44.10;;;;;;4957822;29;20307;-79
2023/03/22 07:39:45;;;;;;;3.50;2.65;;;21.50;43.80;;;;;;4940443;29;20199;-79
2023/03/22 07:42:13;;;;;;;3.08;2.70;;;21.60;43.50;;;;;;4940055;28;20289;-79
2023/03/22 07:44:48;;;;;;;2.97;2.58;;;21.70;43.90;;;;;;4957616;28;20626;-79
2023/03/22 07:47:15;;;;;;;3.63;2.60;;;21.80;43.10;;;;;;4941703;29;20199;-80
2023/03/22 07:49:50;;;;;;;3.03;2.72;;;21.90;42.80;;;;;;4941238;29;20242;-80
2023/03/22 07:52:22;;;;;;;3.88;2.72;;;22.00;42.80;;;;;;4939725;29;20281;-80
2023/03/22 07:54:51;;;;;;;2.85;2.40;;;22.10;42.60;;;;;;4923987;29;20222;-80
2023/03/22 07:57:18;;;;;;;3.40;2.55;;;22.10;42.50;;;;;;4940438;29;20654;-80
2023/03/22 07:59:52;;;;;;;3.60;2.50;;;22.30;42.30;;;;;;4941048;29;20197;-80
2023/03/22 08:02:19;;;;;;;3.10;2.42;;;22.40;42.10;;;;;;4940057;29;20293;-80
2023/03/22 08:04:52;;;;;;;3.70;2.50;;;22.50;42.00;;;;;;4939773;29;20218;-80
2023/03/22 08:07:29;;;;;;;3.85;3.10;;;22.50;42.40;;;;;;4940169;29;20219;-80
2023/03/22 08:09:57;;;;;;;3.20;2.60;;;22.60;41.80;;;;;;4939672;29;20207;-80
2023/03/22 08:12:26;;;;;;;3.15;2.60;;;22.70;41.60;;;;;;4942695;29;20302;-80
2023/03/22 08:15:01;;;;;;;4.07;2.80;;;22.80;42.10;;;;;;4942087;29;20241;-80
2023/03/22 08:17:29;;;;;;;3.80;3.08;;;22.90;41.30;;;;;;4941246;29;20285;-81
2023/03/22 08:19:56;;;;;;;3.60;2.70;;;22.90;41.20;;;;;;4940186;29;20297;-81
2023/03/22 08:22:37;;;;;;;3.30;2.70;;;23.00;41.00;;;;;;4940905;29;20211;-81
2023/03/22 08:25:26;;;;;;;2.97;2.53;;;23.00;41.50;;;;;;4957918;29;20191;-81
2023/03/22 08:28:00;;;;;;;2.88;2.58;;;23.10;40.80;;;;;;4940461;29;20245;-81
2023/03/22 08:30:27;;;;;;;4.05;2.90;;;23.10;40.70;;;;;;4940396;29;20293;-81
2023/03/22 08:32:54;;;;;;;3.00;2.55;;;23.20;40.60;;;;;;4940647;28;20199;-81
2023/03/22 08:35:22;;;;;;;3.50;2.80;;;23.20;40.50;;;;;;4939909;29;20238;-81
2023/03/22 08:37:53;;;;;;;3.70;2.78;;;23.30;40.50;;;;;;4940722;29;20203;-81
2023/03/22 08:40:22;;;;;;;3.00;2.70;;;23.40;40.50;;;;;;4942416;29;20183;-81
2023/03/22 08:42:56;;;;;;;3.97;2.60;;;23.40;40.20;;;;;;4941208;28;20190;-81
2023/03/22 08:45:23;;;;;;;2.53;2.30;;;23.50;40.10;;;;;;4940326;29;20195;-81
2023/03/22 08:47:58;;;;;;;2.97;2.47;;;23.60;40.20;;;;;;4939751;29;20260;-81
2023/03/22 08:50:26;;;;;;;3.65;2.60;;;23.60;40.00;;;;;;4939595;29;20201;-81
2023/03/22 08:53:11;;;;;;;3.85;2.50;;;23.70;39.90;;;;;;4939594;28;20195;-81
2023/03/22 08:55:38;;;;;;;2.53;2.33;;;23.70;39.60;;;;;;4942467;29;20214;-81
2023/03/22 08:58:13;;;;;;;2.85;2.55;;;23.70;39.60;;;;;;4961006;29;20197;-81
2023/03/22 09:00:59;;;;;;;2.75;2.38;;;23.80;39.70;;;;;;4960498;29;20642;-81
2023/03/22 09:03:33;;;;;;;2.72;2.30;;;23.80;39.60;;;;;;4944192;29;20226;-81
2023/03/22 09:06:02;;;;;;;3.92;2.70;;;23.90;39.60;;;;;;4943199;29;20678;-81
2023/03/22 09:08:34;;;;;;;2.58;2.38;;;23.90;39.50;;;;;;4928054;29;20199;-81
2023/03/22 09:11:08;;;;;;;2.97;2.58;;;23.90;39.50;;;;;;4943047;29;20613;-81
2023/03/22 09:13:37;;;;;;;3.10;2.42;;;24.00;39.40;;;;;;4942782;29;20313;-81
2023/03/22 09:16:05;;;;;;;3.10;2.53;;;24.00;39.30;;;;;;4943017;29;20222;-81
2023/03/22 09:18:33;;;;;;;3.10;2.75;;;24.10;39.30;;;;;;4942980;29;20230;-81
2023/03/22 09:21:06;;;;;;;3.20;2.40;;;24.10;39.20;;;;;;4943040;29;20210;-81
2023/03/22 09:23:46;;;;;;;3.45;2.33;;;24.10;39.20;;;;;;4943084;29;20320;-80
2023/03/22 09:26:15;;;;;;;2.60;2.40;;;24.10;39.10;;;;;;4943712;29;20191;-80
2023/03/22 09:28:45;;;;;;;3.20;2.33;;;24.20;39.00;;;;;;4943089;29;20195;-80
2023/03/22 09:31:13;;;;;;;3.55;2.70;;;24.20;39.10;;;;;;4943448;29;20202;-80
2023/03/22 09:33:41;;;;;;;3.47;2.55;;;24.20;38.90;;;;;;4912070;29;20218;-80
2023/03/22 09:36:10;;;;;;;3.70;2.50;;;24.20;39.00;;;;;;4943220;29;20590;-80
2023/03/22 09:38:40;;;;;;;2.58;2.20;;;24.30;39.00;;;;;;4928853;29;20293;-80
2023/03/22 09:41:08;;;;;;;2.92;2.40;;;24.30;38.80;;;;;;4943220;29;20206;-80
2023/03/22 09:43:38;;;;;;;2.67;2.45;;;24.30;38.80;;;;;;4941841;29;20697;-80
2023/03/22 09:46:12;;;;;;;3.17;2.25;;;24.30;38.80;;;;;;4942129;29;20195;-80
2023/03/22 09:48:41;;;;;;;2.92;2.38;;;24.30;38.70;;;;;;4942103;29;20218;-80
2023/03/22 09:51:16;;;;;;;2.50;2.30;;;24.40;38.80;;;;;;4942121;29;20257;-80
2023/03/22 09:53:43;;;;;;;3.08;2.30;;;24.30;38.80;;;;;;4942888;29;20222;-81
2023/03/22 09:56:12;;;;;;;2.60;2.28;;;24.30;38.80;;;;;;4943265;29;20222;-80
2023/03/22 09:58:42;;;;;;;2.30;2.10;;;24.30;38.80;;;;;;4925818;29;20198;-80
2023/03/22 10:01:14;;;;;;;2.40;2.20;;;24.40;38.80;;;;;;4958882;29;20227;-80
2023/03/22 10:04:10;;;;;;;2.95;1.98;;;24.40;38.80;;;;;;4941629;29;20604;-80
2023/03/22 10:06:37;;;;;;;2.88;2.35;;;24.40;38.80;;;;;;4941168;29;20555;-80
2023/03/22 10:09:07;;;;;;;2.45;2.25;;;24.40;38.80;;;;;;4941886;29;20205;-80
2023/03/22 10:11:40;;;;;;;3.08;2.20;;;24.30;38.80;;;;;;4941656;29;20693;-80
2023/03/22 10:14:14;;;;;;;3.30;2.20;;;24.30;38.80;;;;;;4941130;29;20277;-80
2023/03/22 10:16:43;;;;;;;2.65;2.15;;;24.30;38.90;;;;;;4941207;29;20218;-80
2023/03/22 10:19:16;;;;;;;2.50;2.30;;;24.20;38.90;;;;;;4941271;29;20621;-80
2023/03/22 10:21:43;;;;;;;2.33;2.13;;;24.20;39.00;;;;;;4941368;29;20198;-80
2023/03/22 10:24:14;;;;;;;2.40;2.03;;;24.20;39.10;;;;;;4941042;29;20262;-80
2023/03/22 10:26:42;;;;;;;2.58;2.20;;;24.10;39.20;;;;;;4940980;29;20662;-80
2023/03/22 10:29:12;;;;;;;2.47;2.20;;;24.00;39.30;;;;;;4941017;29;20672;-81
2023/03/22 10:31:39;;;;;;;2.40;2.20;;;23.90;39.50;;;;;;4941058;29;20202;-81
2023/03/22 10:34:12;;;;;;;2.33;2.10;;;23.80;39.60;;;;;;4941027;29;20314;-81
2023/03/22 10:36:39;;;;;;;2.20;2.00;;;23.80;39.70;;;;;;4942568;29;20446;-80
2023/03/22 10:39:10;;;;;;;3.30;2.13;;;23.80;39.70;;;;;;4941663;29;20234;-80
2023/03/22 10:41:37;;;;;;;2.40;2.05;;;23.70;39.70;;;;;;4941464;29;20184;-80
2023/03/22 10:44:04;;;;;;;2.40;2.20;;;23.70;39.70;;;;;;4941388;29;20238;-80
2023/03/22 10:46:33;;;;;;;2.15;1.90;;;23.60;39.70;;;;;;4941710;29;20565;-80
2023/03/22 10:49:02;;;;;;;2.78;2.28;;;23.60;39.80;;;;;;4941685;29;20254;-80
2023/03/22 10:51:32;;;;;;;2.13;1.92;;;23.70;39.80;;;;;;4941533;29;20254;-80
2023/03/22 10:54:01;;;;;;;2.35;2.13;;;23.60;39.70;;;;;;4942363;29;20227;-80
2023/03/22 10:56:28;;;;;;;2.60;2.10;;;23.70;39.80;;;;;;4941485;29;20753;-80
2023/03/22 10:58:55;;;;;;;2.97;2.10;;;23.70;39.80;;;;;;4941746;29;20207;-80
2023/03/22 11:01:27;;;;;;;2.42;2.22;;;23.70;39.90;;;;;;4942013;29;20230;-80
2023/03/22 11:03:56;;;;;;;2.38;2.08;;;23.60;39.80;;;;;;4941918;29;20227;-80
2023/03/22 11:06:24;;;;;;;1.95;1.75;;;23.60;39.80;;;;;;4941907;29;20203;-80
2023/03/22 11:08:53;;;;;;;2.67;2.08;;;23.60;40.00;;;;;;4948491;29;20203;-80
2023/03/22 11:11:23;;;;;;;2.22;2.03;;;23.60;40.10;;;;;;4959211;29;20262;-80
2023/03/22 11:13:51;;;;;;;3.15;2.08;;;23.60;40.10;;;;;;4959850;29;20245;-80
2023/03/22 11:16:19;;;;;;;2.33;1.90;;;23.50;40.20;;;;;;4954564;29;20226;-80
2023/03/22 11:18:46;;;;;;;2.33;2.10;;;23.50;40.30;;;;;;4930426;29;20195;-81
2023/03/22 11:21:13;;;;;;;2.00;1.80;;;23.50;40.30;;;;;;4945786;29;20702;-81
2023/03/22 11:23:42;;;;;;;2.22;1.92;;;23.50;40.40;;;;;;4945628;29;20226;-81
2023/03/22 11:26:11;;;;;;;2.15;1.95;;;23.40;40.30;;;;;;4945465;29;20206;-80
2023/03/22 11:28:42;;;;;;;2.50;2.30;;;23.50;40.50;;;;;;4945229;29;20207;-80
2023/03/22 11:31:14;;;;;;;1.90;1.80;;;23.50;40.50;;;;;;4945421;29;20203;-81
2023/03/22 11:33:53;;;;;;;2.00;1.80;;;23.50;40.50;;;;;;4943269;29;20223;-81
2023/03/22 11:36:20;;;;;;;1.90;1.80;;;23.50;40.50;;;;;;4939683;29;20216;-81
2023/03/22 11:38:47;;;;;;;1.98;1.80;;;23.40;40.40;;;;;;4939764;29;20613;-80
2023/03/22 11:41:20;;;;;;;1.67;1.58;;;23.50;40.50;;;;;;4941354;29;20199;-81
2023/03/22 11:43:48;;;;;;;1.95;1.80;;;23.50;40.50;;;;;;4940536;29;20729;-81
2023/03/22 11:46:18;;;;;;;2.20;2.03;;;23.50;40.50;;;;;;4940752;29;20211;-81
2023/03/22 11:48:45;;;;;;;1.88;1.70;;;23.50;40.50;;;;;;4939710;29;20207;-80
2023/03/22 11:51:13;;;;;;;2.13;1.92;;;23.50;40.50;;;;;;4939624;29;20199;-80
2023/03/22 11:53:42;;;;;;;2.20;2.00;;;23.50;40.50;;;;;;4939587;29;20219;-81
2023/03/22 11:56:10;;;;;;;1.90;1.80;;;23.50;40.60;;;;;;4924586;29;20226;-81
2023/03/22 11:58:55;;;;;;;1.90;1.80;;;23.60;40.70;;;;;;4939582;29;20214;-81
2023/03/22 12:01:27;;;;;;;2.03;1.83;;;23.60;40.70;;;;;;4939705;29;20229;-81
2023/03/22 12:03:56;;;;;;;1.80;1.70;;;23.60;40.70;;;;;;4924407;29;20218;-81
2023/03/22 12:06:26;;;;;;;2.00;1.80;;;23.60;40.70;;;;;;4956835;29;20201;-81
2023/03/22 12:08:55;;;;;;;1.75;1.60;;;23.60;40.90;;;;;;4939411;29;20681;-80
2023/03/22 12:11:26;;;;;;;2.15;1.80;;;23.60;40.80;;;;;;4938985;29;20202;-80
2023/03/22 12:13:56;;;;;;;2.28;1.77;;;23.50;40.80;;;;;;4939241;29;20229;-81
2023/03/22 12:16:24;;;;;;;2.50;1.88;;;23.60;40.90;;;;;;4939317;29;20723;-81
2023/03/22 12:18:56;;;;;;;2.08;1.88;;;23.60;40.90;;;;;;4939306;29;20194;-81
2023/03/22 12:21:23;;;;;;;2.00;1.80;;;23.50;41.00;;;;;;4938885;29;20203;-81
2023/03/22 12:23:51;;;;;;;1.50;1.40;;;23.50;41.00;;;;;;4923296;29;20298;-81
2023/03/22 12:26:19;;;;;;;1.65;1.55;;;23.50;41.10;;;;;;4939497;29;20226;-81
2023/03/22 12:28:51;;;;;;;2.47;2.03;;;23.40;41.20;;;;;;4938552;29;20313;-81
2023/03/22 12:31:21;;;;;;;2.20;1.80;;;23.40;41.20;;;;;;4938934;29;20202;-80
2023/03/22 12:33:49;;;;;;;1.70;1.60;;;23.40;41.20;;;;;;4939578;29;20257;-80
2023/03/22 12:36:17;;;;;;;2.05;1.85;;;23.40;41.20;;;;;;4938809;29;20409;-81
2023/03/22 12:38:47;;;;;;;1.98;1.75;;;23.40;41.20;;;;;;4938781;29;20642;-81
2023/03/22 12:41:15;;;;;;;1.65;1.55;;;23.40;41.30;;;;;;4938938;29;20613;-81
2023/03/22 12:43:47;;;;;;;1.77;1.65;;;23.40;41.40;;;;;;4938682;29;20261;-81
2023/03/22 12:46:17;;;;;;;1.73;1.63;;;23.40;41.40;;;;;;4938773;29;20191;-81
2023/03/22 12:48:48;;;;;;;1.85;1.70;;;23.30;41.30;;;;;;4938915;29;20199;-81
2023/03/22 12:51:15;;;;;;;1.60;1.50;;;23.30;41.40;;;;;;4940166;29;20191;-81
2023/03/22 12:53:43;;;;;;;1.80;1.70;;;23.20;41.50;;;;;;4940254;29;20225;-81
2023/03/22 12:56:11;;;;;;;1.63;1.50;;;23.30;41.60;;;;;;4940050;29;20645;-81
2023/03/22 12:58:38;;;;;;;1.70;1.60;;;23.20;41.50;;;;;;4955739;29;20283;-81
2023/03/22 13:01:19;;;;;;;1.83;1.60;;;23.30;41.60;;;;;;4941089;29;20229;-81
2023/03/22 13:03:50;;;;;;;1.60;1.50;;;23.30;41.70;;;;;;4940659;29;20218;-81